Time;durP1;ratioP1;P1;durP2;ratioP2;P2;SDS_P1;SDS_P2;PMS_P1;PMS_P2;Temp;Humidity;BMP_temperature;BMP_pressure;BME280_temperature;BME280_humidity;BME280_pressure;Samples;Min_cycle;Max_cycle;Signal;HPM_P1;HPM_P2
2022/12/24 00:01:32;;;;;;;;;3.00;0.75;;;;;12.23;77.24;101038.78;5036477;28;45413;-86
2022/12/24 00:03:58;;;;;;;;;5.50;2.00;;;;;12.22;76.90;101044.88;5035021;28;47055;-86
2022/12/24 00:06:23;;;;;;;;;3.25;2.75;;;;;12.22;77.29;101042.25;5034690;28;45258;-87
2022/12/24 00:08:52;;;;;;;;;6.50;1.50;;;;;12.18;77.22;101034.56;5051397;28;49124;-87
2022/12/24 00:11:17;;;;;;;;;3.75;0.25;;;;;12.18;77.09;101031.06;5033112;28;45365;-87
2022/12/24 00:13:43;;;;;;;;;2.00;1.00;;;;;12.18;77.04;101031.06;5015204;28;46112;-87
2022/12/24 00:16:08;;;;;;;;;3.75;2.00;;;;;12.17;76.96;101027.59;5014970;28;45494;-86
2022/12/24 00:18:34;;;;;;;;;3.75;1.50;;;;;12.16;76.93;101028.50;5015197;28;45771;-87
2022/12/24 00:21:02;;;;;;;;;2.00;1.00;;;;;12.14;77.34;101032.06;5014129;28;56140;-86
2022/12/24 00:23:28;;;;;;;;;7.00;2.00;;;;;12.11;77.47;101033.03;5016014;28;45452;-86
2022/12/24 00:25:53;;;;;;;;;4.00;2.00;;;;;12.08;77.20;101035.72;5015035;28;45424;-86
2022/12/24 00:28:18;;;;;;;;;6.50;3.00;;;;;12.06;77.29;101021.03;5014876;28;45390;-86
2022/12/24 00:30:44;;;;;;;;;5.50;2.00;;;;;12.06;77.47;101029.69;5014606;28;49185;-86
2022/12/24 00:33:09;;;;;;;;;6.50;1.00;;;;;12.06;77.54;101034.06;5013912;28;57287;-87
2022/12/24 00:35:36;;;;;;;;;3.00;2.00;;;;;12.03;77.49;101021.94;5013991;28;57039;-86
2022/12/24 00:38:02;;;;;;;;;3.00;1.25;;;;;12.03;77.76;101014.13;4998269;28;45437;-87
2022/12/24 00:40:28;;;;;;;;;4.50;1.00;;;;;12.03;77.35;101036.75;5016230;28;45381;-87
2022/12/24 00:42:54;;;;;;;;;4.75;2.00;;;;;11.99;77.78;101056.88;5032045;28;46611;-86
2022/12/24 00:45:19;;;;;;;;;2.75;2.00;;;;;11.98;77.77;101056.03;5035136;28;63891;-86
2022/12/24 00:47:44;;;;;;;;;9.50;2.00;;;;;11.96;77.79;101046.50;5034656;28;45305;-86
2022/12/24 00:50:10;;;;;;;;;6.75;3.75;;;;;11.97;78.02;101056.06;5033767;28;52806;-87
2022/12/24 00:52:35;;;;;;;;;5.50;0.25;;;;;11.96;78.19;101057.81;5034383;28;45612;-86
2022/12/24 00:55:00;;;;;;;;;2.50;1.50;;;;;11.96;77.97;101049.13;5035533;28;45260;-86
2022/12/24 00:57:26;;;;;;;;;5.50;2.00;;;;;11.96;78.19;101059.56;5035566;28;45403;-86
2022/12/24 00:59:51;;;;;;;;;4.50;3.75;;;;;11.95;78.21;101084.78;5034511;28;45385;-85
2022/12/24 01:02:17;;;;;;;;;8.25;3.00;;;;;11.94;78.10;101084.84;5034274;28;45344;-87
2022/12/24 01:07:26;;;;;;;;;2.00;1.00;;;;;11.95;77.96;101086.56;5035749;28;45363;-86
2022/12/24 01:09:51;;;;;;;;;7.00;1.00;;;;;11.93;78.01;101083.16;5027840;28;45191;-86
2022/12/24 01:12:17;;;;;;;;;5.00;1.50;;;;;11.93;78.48;101070.09;5014267;28;45432;-86
2022/12/24 01:14:42;;;;;;;;;3.00;0.50;;;;;11.91;78.59;101064.94;5013826;28;58147;-86
2022/12/24 01:17:08;;;;;;;;;6.50;0.50;;;;;11.92;78.44;101066.66;4997364;28;55171;-87
2022/12/24 01:19:33;;;;;;;;;4.25;2.00;;;;;11.92;78.82;101069.25;5014066;28;45359;-86
2022/12/24 01:21:58;;;;;;;;;12.25;1.50;;;;;11.92;78.65;101052.72;5014752;28;65262;-87
2022/12/24 01:24:24;;;;;;;;;7.75;4.00;;;;;11.93;78.68;101050.06;5013833;28;52849;-87
2022/12/24 01:26:49;;;;;;;;;7.25;2.00;;;;;11.93;78.65;101057.06;5014359;28;45355;-86
2022/12/24 01:29:15;;;;;;;;;5.50;2.00;;;;;11.94;78.92;101066.56;5014135;28;46195;-87
2022/12/24 01:31:40;;;;;;;;;2.00;1.00;;;;;11.93;79.12;101073.56;5013911;28;47958;-86
2022/12/24 01:34:06;;;;;;;;;1.75;1.50;;;;;11.93;79.16;101076.16;4997131;28;45421;-87
2022/12/24 01:36:31;;;;;;;;;6.00;3.75;;;;;11.94;78.93;101071.78;5013972;28;45344;-86
2022/12/24 01:38:56;;;;;;;;;2.50;1.25;;;;;11.95;79.09;101076.13;5015320;28;45556;-86
2022/12/24 01:44:30;;;;;;;;;5.00;2.00;;;;;11.93;79.22;101077.94;5034256;28;45700;-86
2022/12/24 01:47:18;;;;;;;;;5.50;2.00;;;;;11.94;79.76;101079.63;5038379;28;45570;-86
2022/12/24 01:49:47;;;;;;;;;4.75;1.00;;;;;11.95;79.48;101089.16;5037422;28;45506;-86
2022/12/24 01:52:20;;;;;;;;;6.50;3.00;;;;;11.95;79.63;101086.56;5037218;28;45557;-86
2022/12/24 01:54:47;;;;;;;;;6.75;1.75;;;;;11.96;79.35;101088.25;5037344;28;45431;-86
2022/12/24 01:57:19;;;;;;;;;3.00;2.00;;;;;11.96;79.60;101104.78;5037241;28;45464;-87
2022/12/24 01:59:49;;;;;;;;;7.00;1.75;;;;;11.97;79.50;101101.25;5037250;28;45313;-87
2022/12/24 02:02:14;;;;;;;;;6.25;4.00;;;;;11.99;79.47;101112.50;5036635;28;46354;-86
2022/12/24 02:04:46;;;;;;;;;8.00;4.00;;;;;12.00;79.25;101103.78;5036899;28;45397;-87
2022/12/24 02:07:11;;;;;;;;;4.75;2.50;;;;;12.00;79.53;101110.78;5038439;28;45448;-87
2022/12/24 02:09:38;;;;;;;;;5.75;2.25;;;;;12.01;79.80;101120.28;5031781;28;49077;-86
2022/12/24 02:12:04;;;;;;;;;8.25;3.00;;;;;12.01;79.46;101122.91;5000329;28;47532;-86
2022/12/24 02:14:31;;;;;;;;;8.25;2.00;;;;;12.03;79.62;101108.06;5016832;28;45767;-86
2022/12/24 02:17:06;;;;;;;;;2.25;1.00;;;;;12.04;79.43;101104.56;5016960;28;45459;-86
2022/12/24 02:19:34;;;;;;;;;3.50;2.25;;;;;12.04;79.70;101107.16;5018208;28;45421;-86
2022/12/24 02:22:18;;;;;;;;;6.50;1.00;;;;;12.04;79.76;101101.94;5017936;28;46331;-86
2022/12/24 02:25:02;;;;;;;;;4.00;2.00;;;;;12.03;79.51;101107.19;5017985;28;46294;-87
2022/12/24 02:27:28;;;;;;;;;1.75;0.50;;;;;12.02;79.51;101095.94;5018173;28;45337;-87
2022/12/24 02:30:04;;;;;;;;;4.50;1.00;;;;;12.01;79.70;101102.88;5016929;28;45361;-86
2022/12/24 02:32:52;;;;;;;;;5.50;3.50;;;;;12.00;79.76;101111.63;5015989;28;47742;-86
2022/12/24 02:35:22;;;;;;;;;5.75;3.50;;;;;12.00;79.95;101102.94;5016652;28;45422;-86
2022/12/24 02:38:19;;;;;;;;;6.00;2.00;;;;;12.02;79.72;101093.31;5016709;28;45514;-86
2022/12/24 02:40:49;;;;;;;;;2.00;2.00;;;;;11.99;79.79;101093.38;4959648;28;45387;-86
2022/12/24 02:43:19;;;;;;;;;9.00;2.75;;;;;11.97;79.92;101085.59;4959615;28;48070;-86
2022/12/24 02:45:46;;;;;;;;;8.00;4.50;;;;;11.99;80.02;101085.56;4959291;28;46189;-86
2022/12/24 02:48:14;;;;;;;;;2.00;1.00;;;;;11.99;79.94;101098.59;4976143;28;45456;-87
2022/12/24 02:50:39;;;;;;;;;6.50;2.00;;;;;11.99;79.97;101111.66;4959725;28;45381;-86
2022/12/24 02:53:08;;;;;;;;;8.00;2.00;;;;;12.02;79.89;101116.78;4959105;28;59067;-87
2022/12/24 02:55:43;;;;;;;;;3.00;2.00;;;;;12.06;79.93;101112.34;4943196;28;45446;-86
2022/12/24 02:58:24;;;;;;;;;1.50;1.25;;;;;12.08;79.78;101094.88;4959637;28;45353;-86
2022/12/24 03:01:15;;;;;;;;;4.00;1.00;;;;;12.06;79.75;101087.09;4959322;28;45471;-86
2022/12/24 03:04:03;;;;;;;;;8.00;1.50;;;;;12.06;80.19;101083.66;4959355;28;46699;-87
2022/12/24 03:06:35;;;;;;;;;8.25;3.50;;;;;12.05;79.80;101079.31;4879715;29;45411;-86
2022/12/24 03:09:23;;;;;;;;;7.25;1.00;;;;;12.06;80.22;101094.09;4874399;29;45364;-87
2022/12/24 03:12:00;;;;;;;;;2.00;2.00;;;;;12.06;79.96;101084.50;4879617;29;45556;-87
2022/12/24 03:14:26;;;;;;;;;2.00;1.00;;;;;12.09;79.91;101094.84;4863561;29;47223;-86
2022/12/24 03:16:51;;;;;;;;;6.50;4.50;;;;;12.10;79.95;101086.09;4862193;28;45689;-86
2022/12/24 03:19:17;;;;;;;;;3.25;2.25;;;;;12.09;80.03;101084.41;4936297;28;55451;-87
2022/12/24 03:21:45;;;;;;;;;13.00;2.50;;;;;12.12;79.89;101080.84;4936788;28;45503;-86
2022/12/24 03:24:10;;;;;;;;;3.50;2.50;;;;;12.10;79.57;101077.44;4936730;28;45523;-87
2022/12/24 03:26:37;;;;;;;;;7.75;2.75;;;;;12.08;79.91;101077.47;4936055;28;58866;-86
2022/12/24 03:29:06;;;;;;;;;6.25;2.25;;;;;12.09;80.06;101088.75;4919534;28;63579;-86
2022/12/24 03:31:46;;;;;;;;;3.50;1.75;;;;;12.10;79.88;101093.94;4920686;28;45438;-87
2022/12/24 03:34:13;;;;;;;;;6.25;2.50;;;;;12.10;79.63;101087.88;4936387;28;46836;-86
2022/12/24 03:36:38;;;;;;;;;7.75;1.00;;;;;12.10;79.89;101087.88;4936664;28;45380;-87
2022/12/24 03:39:05;;;;;;;;;6.75;2.00;;;;;12.08;79.72;101087.91;4936629;28;45606;-87
2022/12/24 03:41:30;;;;;;;;;2.50;2.00;;;;;12.08;79.48;101100.09;4936457;28;45588;-86
2022/12/24 03:43:55;;;;;;;;;7.25;2.00;;;;;12.07;79.79;101096.66;4981424;28;46006;-87
2022/12/24 03:46:21;;;;;;;;;3.50;1.00;;;;;12.07;79.72;101104.47;5015461;28;45362;-86
2022/12/24 03:48:46;;;;;;;;;2.00;2.00;;;;;12.09;79.55;101096.59;4998418;28;58652;-87
2022/12/24 03:51:23;;;;;;;;;4.00;1.25;;;;;12.08;79.74;101094.88;5015202;28;49740;-86
2022/12/24 03:53:51;;;;;;;;;6.75;1.00;;;;;12.07;79.80;101087.94;5016428;28;45331;-86
2022/12/24 03:56:17;;;;;;;;;8.00;2.00;;;;;12.08;79.79;101100.09;5015455;28;45685;-86
2022/12/24 03:58:42;;;;;;;;;2.25;2.00;;;;;12.07;79.50;101101.88;5015067;28;45342;-87
2022/12/24 04:01:07;;;;;;;;;6.50;2.00;;;;;12.08;79.91;101108.78;5015637;28;45293;-87
2022/12/24 04:03:33;;;;;;;;;8.25;2.00;;;;;12.07;79.54;101114.91;5016359;28;46393;-87
2022/12/24 04:06:10;;;;;;;;;3.00;2.50;;;;;12.04;79.60;101112.38;4998454;28;53371;-87
2022/12/24 04:08:35;;;;;;;;;9.50;2.00;;;;;12.05;79.70;101119.28;5023253;28;45561;-87
2022/12/24 04:11:03;;;;;;;;;5.75;3.50;;;;;12.03;79.71;101125.47;5034431;28;45417;-87
2022/12/24 04:13:28;;;;;;;;;4.00;2.00;;;;;12.03;79.73;101121.09;5055994;28;46260;-87
2022/12/24 04:15:59;;;;;;;;;7.00;2.25;;;;;12.00;79.71;101124.66;5038509;28;45424;-87
2022/12/24 04:18:24;;;;;;;;;9.50;1.25;;;;;11.97;79.88;101134.31;5038373;28;45389;-86
2022/12/24 04:20:49;;;;;;;;;1.75;1.00;;;;;11.94;79.73;101129.19;5038432;28;45501;-86
2022/12/24 04:23:15;;;;;;;;;6.00;3.00;;;;;11.92;80.13;101126.66;5037382;28;64308;-86
2022/12/24 04:25:40;;;;;;;;;9.50;2.00;;;;;11.92;80.17;101136.19;5055520;28;63092;-86
2022/12/24 04:28:05;;;;;;;;;6.50;2.25;;;;;11.89;80.13;101138.88;5037373;28;50674;-86
2022/12/24 04:30:31;;;;;;;;;4.00;2.00;;;;;11.89;80.16;101133.66;5037805;28;54298;-86
2022/12/24 04:32:56;;;;;;;;;8.75;1.25;;;;;11.89;80.27;101131.91;5055548;28;54955;-86
2022/12/24 04:35:21;;;;;;;;;5.50;3.50;;;;;11.91;80.53;101144.94;5020693;28;62562;-87
2022/12/24 04:37:47;;;;;;;;;9.50;2.00;;;;;11.91;80.66;101150.16;5020815;28;64152;-87
2022/12/24 04:40:12;;;;;;;;;1.75;1.50;;;;;11.90;80.54;101138.84;5038219;28;45353;-86
2022/12/24 04:42:38;;;;;;;;;8.25;1.00;;;;;11.92;80.63;101138.81;5055464;28;47363;-86
2022/12/24 04:45:03;;;;;;;;;2.75;1.00;;;;;11.94;80.39;101158.75;5020724;28;64651;-87
2022/12/24 04:47:29;;;;;;;;;2.25;2.00;;;;;11.96;80.43;101164.78;5037987;28;45309;-86
2022/12/24 04:49:54;;;;;;;;;2.50;0.75;;;;;11.96;80.46;101156.09;5055963;28;45302;-87
2022/12/24 04:52:19;;;;;;;;;6.50;1.50;;;;;11.95;80.35;101149.16;5037860;28;46084;-86
2022/12/24 04:54:45;;;;;;;;;1.00;1.00;;;;;11.94;80.42;101153.53;5055763;28;45441;-86
2022/12/24 04:57:10;;;;;;;;;10.00;2.75;;;;;11.97;80.36;101153.44;5020569;28;54809;-87
2022/12/24 04:59:35;;;;;;;;;2.25;1.00;;;;;11.97;80.08;101149.97;5037733;28;45402;-87
2022/12/24 05:02:01;;;;;;;;;3.75;1.00;;;;;11.97;80.22;101153.44;5054943;28;63189;-87
2022/12/24 05:04:27;;;;;;;;;6.25;2.25;;;;;12.00;80.17;101155.97;5055972;28;45302;-87
2022/12/24 05:06:52;;;;;;;;;4.25;2.00;;;;;12.00;79.78;101162.94;5021077;28;45466;-87
2022/12/24 05:09:18;;;;;;;;;7.50;2.00;;;;;12.01;79.99;101162.88;5037510;28;45393;-86
2022/12/24 05:11:43;;;;;;;;;6.00;2.00;;;;;12.02;80.11;101166.38;5037194;28;47627;-87
2022/12/24 05:14:08;;;;;;;;;3.25;1.75;;;;;12.01;80.03;101164.66;5055073;28;52991;-86
2022/12/24 05:16:34;;;;;;;;;8.50;1.75;;;;;12.00;80.06;101168.16;5037400;28;49264;-87
2022/12/24 05:18:59;;;;;;;;;3.00;3.00;;;;;12.00;79.86;101155.13;5037640;28;45391;-87
2022/12/24 05:21:25;;;;;;;;;3.00;2.00;;;;;12.03;79.79;101164.59;5040589;28;52535;-86
2022/12/24 05:26:43;;;;;;;;;6.75;2.50;;;;;12.03;79.87;101156.78;5043883;28;45376;-86
2022/12/24 05:29:11;;;;;;;;;5.25;2.75;;;;;12.03;79.92;101148.94;5041082;28;45421;-86
2022/12/24 05:31:38;;;;;;;;;4.50;2.00;;;;;12.03;80.05;101152.41;5058696;28;47392;-86
2022/12/24 05:34:04;;;;;;;;;9.75;2.25;;;;;12.05;80.12;101148.00;5041046;28;45394;-86
2022/12/24 05:36:29;;;;;;;;;9.00;2.00;;;;;12.08;79.98;101147.06;5040932;28;45366;-86
2022/12/24 05:38:55;;;;;;;;;5.50;2.00;;;;;12.11;79.80;101144.34;5058463;28;45320;-87
2022/12/24 05:41:21;;;;;;;;;3.25;1.00;;;;;12.13;80.10;101146.03;5023926;28;47096;-86
2022/12/24 05:43:46;;;;;;;;;4.50;2.25;;;;;12.14;80.10;101141.66;5024011;28;45621;-86
2022/12/24 05:46:14;;;;;;;;;1.50;0.50;;;;;12.14;80.31;101141.66;5024174;28;45462;-86
2022/12/24 05:48:39;;;;;;;;;7.00;2.50;;;;;12.11;80.47;101137.41;5040656;28;45550;-86
2022/12/24 05:51:07;;;;;;;;;4.50;2.00;;;;;12.14;80.44;101141.66;5040358;28;47085;-86
2022/12/24 05:53:32;;;;;;;;;6.25;1.00;;;;;12.12;80.64;101141.72;5040252;28;45715;-87
2022/12/24 05:56:09;;;;;;;;;6.50;3.00;;;;;12.12;80.55;101140.88;5040697;28;45380;-86
2022/12/24 05:58:35;;;;;;;;;4.50;3.00;;;;;12.16;80.72;101142.47;5040511;28;45483;-86
2022/12/24 06:01:02;;;;;;;;;3.00;2.00;;;;;12.13;80.72;101134.75;5058425;28;46259;-86
2022/12/24 06:03:28;;;;;;;;;7.00;3.00;;;;;12.14;80.67;101139.06;5040549;28;45741;-86
2022/12/24 06:06:07;;;;;;;;;4.50;2.50;;;;;12.10;81.27;101137.44;5058689;28;45403;-87
2022/12/24 06:08:34;;;;;;;;;7.25;3.75;;;;;12.06;81.27;101126.25;5040018;28;45412;-86
2022/12/24 06:11:02;;;;;;;;;6.50;3.00;;;;;12.04;81.10;101128.03;5040033;28;45606;-86
2022/12/24 06:13:27;;;;;;;;;7.25;3.00;;;;;12.01;81.55;101138.56;5058164;28;45280;-86
2022/12/24 06:15:54;;;;;;;;;7.50;2.75;;;;;11.99;81.58;101132.53;5040412;28;45426;-87
2022/12/24 06:18:20;;;;;;;;;11.50;3.25;;;;;11.95;82.06;101149.16;5058173;28;45448;-86
2022/12/24 06:20:49;;;;;;;;;14.00;1.00;;;;;11.93;82.05;101153.59;5058115;28;46703;-86
2022/12/24 06:23:15;;;;;;;;;4.50;3.00;;;;;11.90;81.90;101141.47;5039727;28;45439;-86
2022/12/24 06:25:40;;;;;;;;;6.00;1.25;;;;;11.89;82.07;101149.31;5039739;28;54758;-86
2022/12/24 06:28:05;;;;;;;;;6.00;2.00;;;;;11.87;81.89;101145.88;5056758;28;45438;-86
2022/12/24 06:30:31;;;;;;;;;2.75;1.50;;;;;11.86;82.10;101147.63;5039021;28;56055;-87
2022/12/24 06:32:56;;;;;;;;;6.25;2.75;;;;;11.85;82.14;101145.06;5057781;28;45381;-86
2022/12/24 06:35:21;;;;;;;;;7.50;3.00;;;;;11.82;82.29;101139.03;5022749;28;57545;-86
2022/12/24 06:37:47;;;;;;;;;4.50;3.00;;;;;11.81;82.35;101142.56;5039330;28;49749;-86
2022/12/24 06:40:12;;;;;;;;;3.00;1.00;;;;;11.79;82.19;101143.47;5039727;28;47653;-87
2022/12/24 06:42:37;;;;;;;;;4.00;2.00;;;;;11.78;82.15;101126.13;5039669;28;45393;-87
2022/12/24 06:45:03;;;;;;;;;7.75;2.25;;;;;11.78;82.18;101132.19;5039910;28;45258;-87
2022/12/24 06:47:28;;;;;;;;;5.00;1.75;;;;;11.79;82.48;101136.53;5057728;28;45460;-86
2022/12/24 06:49:54;;;;;;;;;7.00;2.75;;;;;11.78;82.33;101137.41;5057231;28;58760;-87
2022/12/24 06:52:19;;;;;;;;;7.00;2.00;;;;;11.77;82.32;101137.44;5038821;28;53219;-86
2022/12/24 06:54:44;;;;;;;;;3.00;1.00;;;;;11.77;82.00;101135.69;5039319;28;59877;-87
2022/12/24 06:57:10;;;;;;;;;8.50;1.50;;;;;11.78;82.20;101136.56;5039675;28;45372;-86
2022/12/24 06:59:35;;;;;;;;;2.00;2.00;;;;;11.76;82.24;101140.97;5038770;28;67537;-87
2022/12/24 07:02:00;;;;;;;;;3.75;2.00;;;;;11.74;82.11;101135.78;5022172;28;65510;-86
2022/12/24 07:04:26;;;;;;;;;2.00;2.00;;;;;11.75;82.38;101128.81;5039372;28;50084;-87
2022/12/24 07:06:51;;;;;;;;;1.75;1.75;;;;;11.75;82.80;101137.50;5038807;28;51825;-86
2022/12/24 07:09:16;;;;;;;;;4.50;1.25;;;;;11.71;81.93;101129.81;5017296;28;48353;-87
2022/12/24 07:11:42;;;;;;;;;2.25;1.00;;;;;11.69;82.06;101132.44;4998805;28;63079;-87
2022/12/24 07:14:07;;;;;;;;;6.00;2.00;;;;;11.70;81.95;101148.94;5015429;28;57104;-86
2022/12/24 07:16:32;;;;;;;;;1.50;0.50;;;;;11.66;82.38;101144.72;4999632;28;45350;-86
2022/12/24 07:18:58;;;;;;;;;2.00;2.00;;;;;11.67;82.03;101154.25;5015711;28;53582;-86
2022/12/24 07:21:23;;;;;;;;;2.50;2.00;;;;;11.68;82.24;101162.06;5015201;28;54397;-86
2022/12/24 07:23:48;;;;;;;;;4.25;1.00;;;;;11.68;81.92;101156.84;5015410;28;53353;-86
2022/12/24 07:26:14;;;;;;;;;9.50;7.00;;;;;11.68;81.83;101150.75;5017243;28;45362;-86
2022/12/24 07:28:39;;;;;;;;;6.50;3.00;;;;;11.68;81.88;101149.00;4998637;28;60766;-87
2022/12/24 07:31:05;;;;;;;;;2.00;1.00;;;;;11.68;81.81;101145.53;5015880;28;45329;-87
2022/12/24 07:33:30;;;;;;;;;3.00;2.00;;;;;11.69;81.98;101149.84;4998606;28;61439;-86
2022/12/24 07:35:59;;;;;;;;;4.25;0.25;;;;;11.68;81.83;101162.06;5015079;28;49230;-86
2022/12/24 07:38:25;;;;;;;;;5.50;0.00;;;;;11.69;82.07;101158.53;5017175;28;46394;-87
2022/12/24 07:40:50;;;;;;;;;2.50;1.00;;;;;11.68;81.73;101167.25;5016426;28;45429;-87
2022/12/24 07:43:16;;;;;;;;;1.50;0.75;;;;;11.71;81.44;101180.19;5034921;28;45352;-86
2022/12/24 07:45:41;;;;;;;;;1.75;1.00;;;;;11.72;81.79;101187.16;5036775;28;45572;-86
2022/12/24 07:48:07;;;;;;;;;2.00;1.00;;;;;11.74;81.43;101182.75;5035138;28;45501;-85
2022/12/24 07:50:32;;;;;;;;;4.00;1.00;;;;;11.77;81.35;101185.25;5035450;28;45477;-87
2022/12/24 07:52:58;;;;;;;;;2.75;1.00;;;;;11.80;81.70;101186.94;5035710;28;45369;-86
2022/12/24 07:55:23;;;;;;;;;0.75;0.00;;;;;11.81;81.29;101179.06;5035708;28;45646;-86
2022/12/24 07:57:48;;;;;;;;;0.50;0.50;;;;;11.81;81.33;101175.59;5035957;28;61479;-86
2022/12/24 08:00:14;;;;;;;;;3.00;0.75;;;;;11.84;81.39;101178.13;5036922;28;45309;-86
2022/12/24 08:02:39;;;;;;;;;1.75;1.75;;;;;11.88;81.11;101186.72;5036735;28;45273;-86
2022/12/24 08:05:05;;;;;;;;;3.25;0.75;;;;;11.88;80.71;101187.56;5035043;28;45399;-87
2022/12/24 08:07:31;;;;;;;;;3.25;0.00;;;;;11.90;80.82;101187.56;5036184;28;45509;-86
2022/12/24 08:09:56;;;;;;;;;0.25;0.25;;;;;11.92;80.61;101183.16;5054936;28;45354;-86
2022/12/24 08:12:22;;;;;;;;;6.50;1.00;;;;;11.94;80.95;101194.41;5038441;28;45264;-86
2022/12/24 08:14:47;;;;;;;;;1.00;0.50;;;;;11.95;80.82;101196.13;5056625;28;45420;-86
2022/12/24 08:17:13;;;;;;;;;1.25;1.00;;;;;12.00;80.83;101196.88;5021200;28;60397;-86
2022/12/24 08:19:38;;;;;;;;;2.50;0.00;;;;;12.05;80.35;101207.16;5055716;28;54893;-87
2022/12/24 08:22:03;;;;;;;;;4.00;2.00;;;;;12.04;80.34;101208.94;5056259;28;45464;-87
2022/12/24 08:24:29;;;;;;;;;3.75;1.00;;;;;12.04;80.36;101208.94;5056533;28;45349;-86
2022/12/24 08:26:54;;;;;;;;;3.00;1.00;;;;;12.07;80.40;101219.28;5038329;28;45421;-86
2022/12/24 08:29:19;;;;;;;;;5.00;1.00;;;;;12.06;80.48;101216.72;5038376;28;45464;-87
2022/12/24 08:31:45;;;;;;;;;0.50;0.00;;;;;12.04;79.97;101224.59;5038220;28;45389;-86
2022/12/24 08:34:10;;;;;;;;;3.00;1.00;;;;;12.06;80.39;101230.59;5055751;28;45420;-86
2022/12/24 08:36:35;;;;;;;;;5.75;1.75;;;;;12.10;80.29;101232.22;5037881;28;47080;-87
2022/12/24 08:39:02;;;;;;;;;1.00;1.00;;;;;12.11;80.13;101230.47;5055962;28;45259;-87
2022/12/24 08:41:29;;;;;;;;;5.00;2.00;;;;;12.10;80.09;101237.44;5038190;28;45365;-87
2022/12/24 08:43:54;;;;;;;;;0.75;0.00;;;;;12.10;79.89;101241.81;5056231;28;45356;-86
2022/12/24 08:46:20;;;;;;;;;2.00;1.00;;;;;12.09;80.01;101248.81;5038564;28;48384;-86
2022/12/24 08:48:45;;;;;;;;;6.00;1.50;;;;;12.07;79.82;101242.78;5021210;28;45546;-86
2022/12/24 08:51:11;;;;;;;;;2.00;0.00;;;;;12.10;80.05;101241.81;5021467;28;45362;-86
2022/12/24 08:53:37;;;;;;;;;1.50;0.00;;;;;12.09;79.98;101240.97;5037729;28;45674;-86
2022/12/24 08:56:07;;;;;;;;;3.00;0.00;;;;;12.10;80.41;101257.47;5054515;28;48335;-86
2022/12/24 08:58:33;;;;;;;;;1.00;1.00;;;;;12.10;80.17;101260.94;5037934;28;45890;-86
2022/12/24 09:00:59;;;;;;;;;0.25;0.25;;;;;12.10;80.38;101260.09;5055878;28;45409;-86
2022/12/24 09:03:24;;;;;;;;;2.00;1.00;;;;;12.11;80.34;101267.88;5037445;28;45433;-86
2022/12/24 09:05:50;;;;;;;;;2.00;0.25;;;;;12.15;80.35;101281.72;5037510;28;45413;-87
2022/12/24 09:08:15;;;;;;;;;3.00;1.00;;;;;12.16;80.61;101273.81;5037503;28;45380;-86
2022/12/24 09:10:41;;;;;;;;;1.50;1.00;;;;;12.17;80.32;101272.94;5055558;28;45754;-86
2022/12/24 09:13:06;;;;;;;;;4.25;0.00;;;;;12.16;80.22;101279.03;5055542;28;45215;-86
2022/12/24 09:15:31;;;;;;;;;1.00;0.00;;;;;12.16;80.00;101286.00;5055342;28;55873;-86
2022/12/24 09:17:57;;;;;;;;;3.50;1.00;;;;;12.17;80.31;101275.53;5036968;28;60529;-87
2022/12/24 09:20:22;;;;;;;;;1.00;1.00;;;;;12.19;80.68;101284.19;5055755;28;45264;-86
2022/12/24 09:22:47;;;;;;;;;3.00;0.50;;;;;12.18;79.95;101285.09;5037273;28;47679;-86
2022/12/24 09:25:13;;;;;;;;;1.00;1.00;;;;;12.17;80.13;101293.81;5037375;28;48089;-86
2022/12/24 09:27:38;;;;;;;;;4.00;1.00;;;;;12.16;80.07;101291.22;5037359;28;45454;-87
2022/12/24 09:30:05;;;;;;;;;1.50;0.50;;;;;12.18;80.35;101298.13;5037547;28;45340;-87
2022/12/24 09:32:30;;;;;;;;;0.00;0.00;;;;;12.23;80.44;101297.16;5037216;28;45353;-86
2022/12/24 09:34:56;;;;;;;;;1.00;1.00;;;;;12.24;79.82;101301.47;5036617;28;61899;-86
2022/12/24 09:37:21;;;;;;;;;0.50;0.00;;;;;12.21;79.95;101305.03;5055202;28;45373;-86
2022/12/24 09:39:47;;;;;;;;;2.00;0.25;;;;;12.21;80.26;101305.03;5037919;28;45356;-86
2022/12/24 09:42:24;;;;;;;;;2.25;0.50;;;;;12.19;80.17;101299.84;5037096;28;56660;-86
2022/12/24 09:44:59;;;;;;;;;3.00;0.00;;;;;12.20;80.04;101313.72;5037462;28;47543;-86
2022/12/24 09:47:42;;;;;;;;;0.25;0.00;;;;;12.21;80.16;101307.63;5054778;28;45684;-86
2022/12/24 09:50:26;;;;;;;;;1.25;1.00;;;;;12.26;80.06;101300.53;5037477;28;45368;-86
2022/12/24 09:52:51;;;;;;;;;3.75;1.00;;;;;12.27;80.04;101301.38;5055206;28;45492;-86
2022/12/24 09:55:24;;;;;;;;;2.00;0.00;;;;;12.29;79.75;101300.44;5036999;28;45605;-86
2022/12/24 09:57:51;;;;;;;;;2.75;1.00;;;;;12.27;79.85;101299.63;5037020;28;45466;-86
2022/12/24 10:00:23;;;;;;;;;0.75;0.00;;;;;12.30;79.80;101298.72;5036931;28;45707;-86
2022/12/24 10:02:49;;;;;;;;;3.00;1.00;;;;;12.31;79.67;101297.78;5037173;28;45461;-86
2022/12/24 10:05:14;;;;;;;;;2.00;0.00;;;;;12.34;79.72;101300.31;5037069;28;50965;-87
2022/12/24 10:07:53;;;;;;;;;1.00;1.00;;;;;12.36;79.81;101302.00;5040595;28;45336;-87
2022/12/24 10:10:35;;;;;;;;;0.00;0.00;;;;;12.39;79.70;101288.00;5040377;28;45440;-86
2022/12/24 10:13:10;;;;;;;;;1.25;0.75;;;;;12.42;79.34;101294.88;5040161;28;45577;-86
2022/12/24 10:15:57;;;;;;;;;0.25;0.25;;;;;12.45;79.33;101313.09;5058115;28;47558;-85
2022/12/24 10:18:25;;;;;;;;;0.00;0.00;;;;;12.48;79.40;101303.44;5058307;28;45333;-86
2022/12/24 10:21:11;;;;;;;;;1.25;0.00;;;;;12.55;79.26;101307.56;5058418;28;45825;-87
2022/12/24 10:23:50;;;;;;;;;0.50;0.50;;;;;12.58;79.15;101304.88;5040380;28;45388;-85
2022/12/24 10:26:23;;;;;;;;;2.00;0.00;;;;;12.63;79.22;101312.59;5040885;28;45421;-87
2022/12/24 10:29:02;;;;;;;;;0.00;0.00;;;;;12.68;79.29;101297.63;5039913;28;45426;-87
2022/12/24 10:31:38;;;;;;;;;1.50;0.00;;;;;12.73;78.75;101303.56;5023593;28;45432;-86
2022/12/24 10:34:15;;;;;;;;;7.00;1.00;;;;;12.73;78.66;101302.72;5040606;28;45505;-86
2022/12/24 10:36:41;;;;;;;;;1.50;1.00;;;;;12.78;78.59;101311.28;5040051;28;47871;-86
2022/12/24 10:39:15;;;;;;;;;2.25;0.00;;;;;12.82;78.40;101310.28;5058447;28;48919;-86
2022/12/24 10:41:41;;;;;;;;;3.00;0.00;;;;;12.83;78.52;101308.53;5040481;28;45347;-87
2022/12/24 10:44:15;;;;;;;;;2.00;0.00;;;;;12.83;78.34;101303.31;5040086;28;45286;-86
2022/12/24 10:46:40;;;;;;;;;2.00;0.00;;;;;12.83;77.73;101300.69;5040009;28;45431;-86
2022/12/24 10:49:11;;;;;;;;;2.00;1.00;;;;;12.82;78.87;101299.84;5022835;28;62309;-85
2022/12/24 10:51:44;;;;;;;;;0.75;0.25;;;;;12.89;78.45;101303.13;5023353;28;45455;-86
2022/12/24 10:54:20;;;;;;;;;1.50;0.75;;;;;12.91;78.22;101298.72;5057963;28;45544;-86
2022/12/24 10:56:51;;;;;;;;;2.25;0.00;;;;;12.94;78.01;101298.63;5057781;28;46205;-86
2022/12/24 10:59:33;;;;;;;;;2.00;0.00;;;;;12.96;78.00;101302.91;5039389;28;45261;-86
2022/12/24 11:02:00;;;;;;;;;2.25;0.00;;;;;12.93;77.50;101310.84;5040031;28;45337;-86
2022/12/24 11:04:31;;;;;;;;;0.00;0.00;;;;;12.90;77.65;101297.84;5023335;28;45529;-86
2022/12/24 11:07:00;;;;;;;;;1.75;0.50;;;;;12.89;77.80;101288.31;5040731;28;45358;-87
2022/12/24 11:09:28;;;;;;;;;1.50;0.00;;;;;12.90;77.47;101297.84;5039141;28;45362;-87
2022/12/24 11:11:55;;;;;;;;;1.25;0.00;;;;;12.92;77.77;101295.19;5039804;28;45628;-87
2022/12/24 11:14:21;;;;;;;;;0.00;0.00;;;;;12.94;78.00;101294.22;5039356;28;45424;-86
2022/12/24 11:16:54;;;;;;;;;1.25;0.00;;;;;12.95;77.80;101285.50;5039276;28;47111;-87
2022/12/24 11:19:29;;;;;;;;;1.50;0.00;;;;;12.98;77.69;101287.16;5039832;28;45916;-87
2022/12/24 11:22:01;;;;;;;;;0.00;0.00;;;;;13.04;77.60;101279.16;5039552;28;45334;-87
2022/12/24 11:24:29;;;;;;;;;2.00;0.00;;;;;13.00;77.69;101267.09;5039937;28;45485;-86
2022/12/24 11:27:23;;;;;;;;;1.00;1.00;;;;;13.01;77.56;101273.16;5039052;28;46394;-86
2022/12/24 11:29:48;;;;;;;;;0.75;0.75;;;;;13.01;77.53;101283.63;5039961;28;45501;-86
2022/12/24 11:32:21;;;;;;;;;0.00;0.00;;;;;12.97;77.73;101277.63;5057906;28;45422;-87
2022/12/24 11:34:47;;;;;;;;;1.00;0.00;;;;;12.98;77.74;101274.97;5039942;28;45402;-87
2022/12/24 11:37:19;;;;;;;;;1.75;0.50;;;;;13.02;77.83;101280.97;5057337;28;45303;-87